This is the latest recevied weather packets stored in our database for station/object W1CAT. If no packets are shown the sender has not sent any weather packets the latest 10 day(s).
| Time | Temp. | Humidity | Pressure | Rain* | Wind** | Luminosity | Snow |
|---|---|---|---|---|---|---|---|
| 1777785533 | 5° C | 56% | - | 0 mm | - | - | - |
| 1777785229 | 4.44° C | 59% | - | 0 mm | - | - | - |
| 1777784926 | 3.89° C | 65% | - | 0 mm | - | - | - |
| 1777784623 | 4.44° C | 61% | - | 0 mm | - | - | - |
| 1777784320 | 4.44° C | 57% | - | 0 mm | - | - | - |
| 1777784018 | 5° C | 57% | - | 0 mm | - | - | - |
| 1777783714 | 5.56° C | 56% | - | 0 mm | - | - | - |
| 1777783411 | 6.11° C | 56% | - | 0 mm | - | - | - |
| 1777783108 | 6.11° C | 53% | - | 0 mm | - | - | - |
| 1777782805 | 5° C | 59% | - | 0 mm | - | - | - |
| 1777782501 | 5° C | 59% | - | 0 mm | - | - | - |
| 1777782198 | 5° C | 59% | - | 0 mm | - | - | - |
| 1777781894 | 5° C | 59% | - | 0 mm | - | - | - |
| 1777781592 | 5.56° C | 56% | - | 0 mm | - | - | - |
| 1777781289 | 5.56° C | 56% | - | 0 mm | - | - | - |
| 1777780987 | 6.11° C | 55% | - | 0 mm | - | - | - |
| 1777780683 | 5.56° C | 56% | - | 0 mm | - | - | - |
| 1777780381 | 5.56° C | 56% | - | 0 mm | - | - | - |
| 1777780078 | 5.56° C | 54% | - | 0 mm | - | - | - |
| 1777779775 | 6.11° C | 53% | - | 0 mm | - | - | - |
| 1777779472 | 6.67° C | 54% | - | 0 mm | - | - | - |
| 1777779170 | 6.67° C | 54% | - | 0 mm | - | - | - |
| 1777778868 | 6.67° C | 52% | - | 0 mm | - | - | - |
| 1777778566 | 7.22° C | 52% | - | 0 mm | - | - | - |
| 1777778263 | 7.22° C | 50% | - | 0 mm | - | - | - |
* Rain latest hour (hover to see other rain measurements)
** Current wind speed in m/s (hover to see current wind gust speed)